createdAt,value
2023-01-21T00:01:01.902Z,100422.99
2023-01-21T00:03:29.247Z,100417.50
2023-01-21T00:05:57.810Z,100418.41
2023-01-21T00:08:25.544Z,100411.04
2023-01-21T00:10:52.768Z,100404.30
2023-01-21T00:13:19.998Z,100405.44
2023-01-21T00:15:52.135Z,100413.05
2023-01-21T00:18:19.683Z,100421.04
2023-01-21T00:20:46.589Z,100422.73
2023-01-21T00:23:14.756Z,100423.89
2023-01-21T00:25:41.907Z,100417.86
2023-01-21T00:28:09.462Z,100411.38
2023-01-21T00:30:36.677Z,100411.33
2023-01-21T00:33:06.140Z,100410.91
2023-01-21T00:35:34.503Z,100411.82
2023-01-21T00:38:01.782Z,100412.02
2023-01-21T00:40:30.239Z,100411.11
2023-01-21T00:42:58.201Z,100413.70
2023-01-21T00:45:25.250Z,100419.32
2023-01-21T00:47:57.720Z,100415.20
2023-01-21T00:50:27.023Z,100410.65
2023-01-21T00:52:54.374Z,100406.35
2023-01-21T00:55:23.160Z,100417.13
2023-01-21T00:57:52.778Z,100417.26
2023-01-21T01:00:20.533Z,100410.84
2023-01-21T01:02:54.587Z,100402.19
2023-01-21T01:05:21.900Z,100400.54
2023-01-21T01:07:50.173Z,100404.76
2023-01-21T01:10:17.748Z,100411.21
2023-01-21T01:12:45.144Z,100404.27
2023-01-21T01:15:12.269Z,100401.17
2023-01-21T01:17:41.348Z,100400.79
2023-01-21T01:20:09.511Z,100394.28
2023-01-21T01:22:36.448Z,100382.46
2023-01-21T01:25:08.927Z,100385.40
2023-01-21T01:27:36.624Z,100384.50
2023-01-21T01:30:06.090Z,100385.66
2023-01-21T01:32:33.284Z,100389.85
2023-01-21T01:35:00.296Z,100382.14
2023-01-21T01:37:32.261Z,100373.20
2023-01-21T01:40:05.331Z,100369.11
2023-01-21T01:42:32.911Z,100371.95
2023-01-21T01:45:27.681Z,100374.27
2023-01-21T01:48:00.164Z,100372.54
2023-01-21T01:50:35.247Z,100379.95
2023-01-21T01:53:02.456Z,100385.81
2023-01-21T01:55:31.097Z,100389.50
2023-01-21T01:57:58.908Z,100386.19
2023-01-21T02:00:26.163Z,100386.92
2023-01-21T02:03:12.563Z,100384.92
2023-01-21T02:05:41.150Z,100382.91
2023-01-21T02:08:08.172Z,100372.88
2023-01-21T02:10:42.834Z,100372.33
2023-01-21T02:13:10.087Z,100369.17
2023-01-21T02:16:31.181Z,100367.98
2023-01-21T02:19:01.303Z,100374.27
2023-01-21T02:21:40.843Z,100378.89
2023-01-21T02:24:26.634Z,100377.61
2023-01-21T02:27:30.190Z,100375.05
2023-01-21T02:30:07.445Z,100379.80
2023-01-21T02:33:01.601Z,100393.29
2023-01-21T02:35:46.958Z,100416.14
2023-01-21T02:38:28.777Z,100428.92
2023-01-21T02:41:43.949Z,100443.89
2023-01-21T02:44:18.883Z,100467.98
2023-01-21T02:46:52.419Z,100476.45
2023-01-21T02:49:28.918Z,100480.76
2023-01-21T02:51:55.793Z,100478.80
2023-01-21T02:54:38.714Z,100464.35
2023-01-21T02:57:37.730Z,100438.86
2023-01-21T03:00:13.332Z,100429.67
2023-01-21T03:02:46.651Z,100407.34
2023-01-21T03:05:19.642Z,100403.06
2023-01-21T03:07:48.238Z,100422.73
2023-01-21T03:10:18.779Z,100453.45
2023-01-21T03:13:18.867Z,100477.08
2023-01-21T03:16:06.880Z,100485.84
2023-01-21T03:18:50.340Z,100492.27
2023-01-21T03:21:19.338Z,100473.95
2023-01-21T03:23:47.923Z,100474.04
2023-01-21T03:26:17.832Z,100489.73
2023-01-21T03:28:46.018Z,100468.80
2023-01-21T03:31:20.714Z,100466.88
2023-01-21T03:33:48.510Z,100461.30
2023-01-21T03:36:32.111Z,100444.45
2023-01-21T03:38:59.218Z,100434.86
2023-01-21T03:41:31.739Z,100417.80
2023-01-21T03:43:58.760Z,100404.52
2023-01-21T03:46:43.902Z,100404.51
2023-01-21T03:49:41.992Z,100418.30
2023-01-21T03:52:09.029Z,100475.71
2023-01-21T03:54:36.458Z,100492.44
2023-01-21T03:57:04.053Z,100467.13
2023-01-21T03:59:32.113Z,100449.07
2023-01-21T04:01:59.082Z,100450.70
2023-01-21T04:04:28.540Z,100401.70
2023-01-21T04:06:57.949Z,100407.05
2023-01-21T04:09:25.332Z,100387.30
2023-01-21T04:11:54.434Z,100395.91
2023-01-21T04:14:21.538Z,100414.61
2023-01-21T04:16:48.795Z,100423.05
2023-01-21T04:19:16.143Z,100432.45
2023-01-21T04:21:43.217Z,100430.20
2023-01-21T04:24:12.035Z,100436.41
2023-01-21T04:26:44.251Z,100448.13
2023-01-21T04:29:15.104Z,100470.89
2023-01-21T04:31:44.210Z,100447.58
2023-01-21T04:34:11.297Z,100441.72
2023-01-21T04:36:39.494Z,100453.33
2023-01-21T04:39:06.558Z,100418.73
2023-01-21T04:41:38.823Z,100432.48
2023-01-21T04:44:11.709Z,100427.60
2023-01-21T04:46:41.429Z,100412.55
2023-01-21T04:49:08.572Z,100405.48
2023-01-21T04:51:38.180Z,100409.13
2023-01-21T04:54:05.437Z,100431.27
2023-01-21T04:56:32.883Z,100437.77
2023-01-21T04:59:00.033Z,100431.98
2023-01-21T05:01:27.851Z,100441.31
2023-01-21T05:03:54.983Z,100458.79
2023-01-21T05:06:23.128Z,100457.73
2023-01-21T05:08:51.814Z,100461.45
2023-01-21T05:11:19.481Z,100474.49
2023-01-21T05:13:47.233Z,100485.40
2023-01-21T05:16:20.072Z,100488.61
2023-01-21T05:18:48.235Z,100498.88
2023-01-21T05:21:15.316Z,100499.61
2023-01-21T05:23:47.401Z,100496.85
2023-01-21T05:26:14.448Z,100504.87
2023-01-21T05:28:41.374Z,100499.80
2023-01-21T05:31:08.637Z,100510.59
2023-01-21T05:33:45.515Z,100512.50
2023-01-21T05:36:17.531Z,100512.64
2023-01-21T05:38:44.852Z,100521.65
2023-01-21T05:41:19.161Z,100528.77
2023-01-21T05:43:46.238Z,100547.64
2023-01-21T05:46:13.379Z,100543.03
2023-01-21T05:48:40.772Z,100550.64
2023-01-21T05:51:08.232Z,100551.77
2023-01-21T05:53:35.071Z,100544.27
2023-01-21T05:56:01.962Z,100537.41
2023-01-21T05:58:29.117Z,100537.91
2023-01-21T06:00:56.673Z,100541.76
2023-01-21T06:03:23.855Z,100547.11
2023-01-21T06:05:53.242Z,100540.39
2023-01-21T06:08:20.785Z,100551.83
2023-01-21T06:10:47.692Z,100546.00
2023-01-21T06:13:14.988Z,100549.24
2023-01-21T06:15:42.119Z,100531.33
2023-01-21T06:18:14.615Z,100548.04
2023-01-21T06:20:41.959Z,100530.95
2023-01-21T06:23:12.721Z,100529.85
2023-01-21T06:25:40.418Z,100526.69
2023-01-21T06:28:08.477Z,100526.30
2023-01-21T06:30:36.645Z,100518.14
2023-01-21T06:33:03.718Z,100524.71
2023-01-21T06:35:36.649Z,100541.81
2023-01-21T06:38:03.489Z,100549.22
2023-01-21T06:40:36.260Z,100538.16
2023-01-21T06:43:03.304Z,100553.73
2023-01-21T06:45:30.339Z,100537.01
2023-01-21T06:47:57.276Z,100540.58
2023-01-21T06:50:24.284Z,100548.99
2023-01-21T06:52:51.147Z,100558.09
2023-01-21T06:55:18.619Z,100576.20
2023-01-21T06:57:46.105Z,100582.91
2023-01-21T07:00:13.767Z,100571.63
2023-01-21T07:02:40.741Z,100568.86
2023-01-21T07:05:07.972Z,100560.27
2023-01-21T07:07:35.006Z,100569.05
2023-01-21T07:10:02.686Z,100569.52
2023-01-21T07:12:29.999Z,100583.20
2023-01-21T07:14:57.044Z,100576.83
2023-01-21T07:17:24.065Z,100579.98
2023-01-21T07:19:51.043Z,100597.98
2023-01-21T07:22:17.922Z,100604.42
2023-01-21T07:24:44.854Z,100615.34
2023-01-21T07:27:12.275Z,100619.08
2023-01-21T07:29:39.204Z,100632.26
2023-01-21T07:32:06.516Z,100627.98
2023-01-21T07:34:33.567Z,100642.78
2023-01-21T07:37:00.500Z,100642.39
2023-01-21T07:39:27.598Z,100643.22
2023-01-21T07:41:54.819Z,100649.86
2023-01-21T07:44:23.481Z,100650.79
2023-01-21T07:46:55.611Z,100656.72
2023-01-21T07:49:22.789Z,100663.72
2023-01-21T07:51:49.814Z,100668.01
2023-01-21T07:54:22.036Z,100666.72
2023-01-21T07:56:49.412Z,100679.97
2023-01-21T07:59:21.541Z,100683.83
2023-01-21T08:01:53.515Z,100686.02
2023-01-21T08:04:20.450Z,100691.05
2023-01-21T08:06:47.320Z,100684.83
2023-01-21T08:09:14.387Z,100685.68
2023-01-21T08:11:43.477Z,100682.98
2023-01-21T08:14:10.401Z,100678.40
2023-01-21T08:16:37.752Z,100668.16
2023-01-21T08:19:04.776Z,100662.02
2023-01-21T08:21:32.301Z,100660.03
2023-01-21T08:23:59.224Z,100661.39
2023-01-21T08:26:26.258Z,100661.11
2023-01-21T08:28:54.515Z,100666.09
2023-01-21T08:31:21.505Z,100667.65
2023-01-21T08:33:48.420Z,100677.23
2023-01-21T08:36:16.434Z,100678.89
2023-01-21T08:38:49.039Z,100681.77
2023-01-21T08:41:17.304Z,100700.43
2023-01-21T08:43:49.356Z,100695.76
2023-01-21T08:46:16.440Z,100700.63
2023-01-21T08:48:43.375Z,100711.45
2023-01-21T08:51:10.624Z,100712.24
2023-01-21T08:53:37.558Z,100706.56
2023-01-21T08:56:04.617Z,100711.96
2023-01-21T08:58:39.349Z,100712.63
2023-01-21T09:01:07.724Z,100708.86
2023-01-21T09:03:35.055Z,100701.63
2023-01-21T09:06:08.020Z,100701.92
2023-01-21T09:08:36.049Z,100696.95
2023-01-21T09:11:03.232Z,100694.68
2023-01-21T09:13:32.990Z,100698.66
2023-01-21T09:16:00.560Z,100705.29
2023-01-21T09:18:29.369Z,100709.59
2023-01-21T09:21:03.805Z,100710.65
2023-01-21T09:23:34.171Z,100720.13
2023-01-21T09:26:06.615Z,100724.10
2023-01-21T09:28:35.512Z,100729.09
2023-01-21T09:31:04.732Z,100736.02
2023-01-21T09:33:34.218Z,100738.06
2023-01-21T09:36:03.311Z,100745.98
2023-01-21T09:38:30.409Z,100744.82
2023-01-21T09:41:18.915Z,100746.68
2023-01-21T09:44:16.069Z,100753.03
2023-01-21T09:47:02.095Z,100754.13
2023-01-21T09:49:33.039Z,100754.16
2023-01-21T09:52:22.287Z,100763.30
2023-01-21T09:54:49.157Z,100759.97
2023-01-21T09:57:40.024Z,100752.75
2023-01-21T10:00:44.697Z,100759.74
2023-01-21T10:03:48.051Z,100759.17
2023-01-21T10:06:19.902Z,100751.70
2023-01-21T10:08:46.948Z,100753.35
2023-01-21T10:11:19.867Z,100753.67
2023-01-21T10:14:03.496Z,100757.00
2023-01-21T10:16:41.726Z,100765.44
2023-01-21T10:19:22.066Z,100769.61
2023-01-21T10:21:56.571Z,100769.98
2023-01-21T10:24:25.147Z,100752.48
2023-01-21T10:26:52.859Z,100751.44
2023-01-21T10:29:22.341Z,100756.29
2023-01-21T10:31:53.812Z,100758.48
2023-01-21T10:34:20.708Z,100764.98
2023-01-21T10:36:47.854Z,100759.11
2023-01-21T10:39:36.001Z,100750.14
2023-01-21T10:42:27.133Z,100752.80
2023-01-21T10:44:59.823Z,100754.88
2023-01-21T10:47:29.655Z,100761.05
2023-01-21T10:50:04.281Z,100748.34
2023-01-21T10:52:56.426Z,100740.29
2023-01-21T10:55:32.661Z,100741.31
2023-01-21T10:58:21.300Z,100743.05
2023-01-21T11:00:48.339Z,100751.48
2023-01-21T11:03:40.924Z,100754.36
2023-01-21T11:06:10.387Z,100755.23
2023-01-21T11:08:38.074Z,100753.36
2023-01-21T15:55:54.671Z,101084.92
2023-01-21T15:58:34.455Z,101089.54
2023-01-21T16:01:05.656Z,101092.38
2023-01-21T16:03:44.770Z,101097.71
2023-01-21T16:06:26.277Z,101102.23
2023-01-21T16:09:04.557Z,101108.83
2023-01-21T16:11:57.913Z,101113.27
2023-01-21T16:14:52.023Z,101119.00
2023-01-21T16:17:34.181Z,101125.60
2023-01-21T16:20:01.119Z,101124.12
2023-01-21T16:22:30.313Z,101128.16
2023-01-21T16:25:00.636Z,101128.38
2023-01-21T16:27:30.457Z,101133.07
2023-01-21T16:29:58.417Z,101136.20
2023-01-21T16:32:26.434Z,101143.29
2023-01-21T16:34:53.419Z,101142.40
2023-01-21T16:37:56.846Z,101144.20
2023-01-21T16:40:24.265Z,101154.43
2023-01-21T16:43:24.251Z,101156.70
2023-01-21T16:45:55.935Z,101159.23
2023-01-21T16:48:27.596Z,101156.95
2023-01-21T16:50:54.728Z,101163.45
2023-01-21T16:53:23.531Z,101164.88
2023-01-21T16:55:55.299Z,101162.79
2023-01-21T16:58:32.659Z,101158.28
2023-01-21T17:01:11.295Z,101164.79
2023-01-21T17:03:38.747Z,101170.39
2023-01-21T17:06:23.066Z,101170.05
2023-01-21T17:09:16.912Z,101167.30
2023-01-21T17:11:44.894Z,101173.52
2023-01-21T17:14:13.624Z,101179.84
2023-01-21T17:16:40.511Z,101183.73
2023-01-21T17:19:18.744Z,101178.61
2023-01-21T17:21:49.414Z,101176.55
2023-01-21T17:24:22.438Z,101189.05
2023-01-21T17:26:51.599Z,101190.83
2023-01-21T17:29:30.699Z,101196.50
2023-01-21T17:32:24.858Z,101190.77
2023-01-21T17:35:11.613Z,101192.13
2023-01-21T17:37:44.151Z,101189.09
2023-01-21T17:40:30.291Z,101192.22
2023-01-21T17:42:58.320Z,101201.23
2023-01-21T17:45:28.582Z,101198.68
2023-01-21T17:48:08.696Z,101206.64
2023-01-21T17:50:37.803Z,101218.05
2023-01-21T17:53:06.753Z,101216.25
2023-01-21T17:55:38.028Z,101218.48
2023-01-21T17:58:52.173Z,101219.41
2023-01-21T18:01:20.173Z,101222.48
2023-01-21T18:03:47.568Z,101229.91
2023-01-21T18:06:16.654Z,101228.27
2023-01-21T18:08:43.750Z,101221.11
2023-01-21T18:11:15.140Z,101220.59
2023-01-21T18:13:41.956Z,101220.81
2023-01-21T18:16:08.862Z,101229.70
2023-01-21T18:18:37.991Z,101232.01
2023-01-21T18:21:05.928Z,101228.15
2023-01-21T18:23:33.090Z,101225.92
2023-01-21T18:26:00.199Z,101227.48
2023-01-21T18:28:31.071Z,101227.34
2023-01-21T18:30:59.089Z,101231.23
2023-01-21T18:33:26.460Z,101231.34
2023-01-21T18:35:53.966Z,101237.45
2023-01-21T18:38:26.529Z,101239.17
2023-01-21T18:40:56.674Z,101240.48
2023-01-21T18:43:24.861Z,101246.83
2023-01-21T18:45:54.065Z,101244.90
2023-01-21T18:48:26.968Z,101250.02
2023-01-21T18:50:58.040Z,101246.15
2023-01-21T18:53:25.336Z,101244.46
2023-01-21T18:55:55.004Z,101253.37
2023-01-21T18:58:23.329Z,101258.18
2023-01-21T19:00:55.745Z,101255.88
2023-01-21T19:03:22.636Z,101255.41
2023-01-21T19:05:50.471Z,101260.35
2023-01-21T19:08:24.445Z,101251.81
2023-01-21T19:10:51.328Z,101249.95
2023-01-21T19:13:19.215Z,101253.98
2023-01-21T19:15:47.404Z,101257.43
2023-01-21T19:18:15.647Z,101259.67
2023-01-21T19:20:42.959Z,101260.98
2023-01-21T19:23:15.237Z,101261.99
2023-01-21T19:26:01.144Z,101265.13
2023-01-21T19:28:27.990Z,101269.94
2023-01-21T19:30:55.595Z,101270.08
2023-01-21T19:33:22.739Z,101281.21
2023-01-21T19:35:50.022Z,101282.45
2023-01-21T19:38:18.593Z,101284.09
2023-01-21T19:40:46.222Z,101284.87
2023-01-21T19:43:14.034Z,101289.84
2023-01-21T19:45:44.446Z,101293.05
2023-01-21T19:48:12.521Z,101290.79
2023-01-21T19:50:39.616Z,101296.81
2023-01-21T19:53:06.807Z,101292.77
2023-01-21T19:55:35.572Z,101294.65
2023-01-21T19:58:04.224Z,101295.86
2023-01-21T20:00:33.778Z,101299.49
2023-01-21T20:03:00.812Z,101301.12
2023-01-21T20:05:29.654Z,101303.69
2023-01-21T20:07:57.215Z,101310.86
2023-01-21T20:10:29.553Z,101311.14
2023-01-21T20:12:56.697Z,101315.13
2023-01-21T20:15:38.747Z,101316.75
2023-01-21T20:18:25.388Z,101317.77
2023-01-21T20:20:52.901Z,101322.00
2023-01-21T20:23:21.345Z,101327.65
2023-01-21T20:25:55.667Z,101327.52
2023-01-21T20:28:50.665Z,101327.73
2023-01-21T20:31:17.837Z,101331.92
2023-01-21T20:33:45.714Z,101336.27
2023-01-21T20:36:20.783Z,101341.14
2023-01-21T20:38:47.816Z,101346.58
2023-01-21T20:41:19.896Z,101346.55
2023-01-21T20:43:47.020Z,101342.00
2023-01-21T20:46:19.694Z,101344.32
2023-01-21T20:48:47.544Z,101348.34
2023-01-21T20:51:14.802Z,101353.29
2023-01-21T20:53:41.861Z,101355.80
2023-01-21T20:56:17.525Z,101358.98
2023-01-21T20:58:47.167Z,101364.13
2023-01-21T21:01:15.295Z,101360.58
2023-01-21T21:03:47.239Z,101362.59
2023-01-21T21:06:30.663Z,101363.30
2023-01-21T21:08:57.706Z,101362.15
2023-01-21T21:11:24.723Z,101357.35
2023-01-21T21:13:52.293Z,101362.15
2023-01-21T21:16:31.338Z,101364.77
2023-01-21T21:19:00.001Z,101367.23
2023-01-21T21:21:27.359Z,101367.23
2023-01-21T21:23:59.531Z,101367.27
2023-01-21T21:26:28.686Z,101368.64
2023-01-21T21:28:56.854Z,101372.54
2023-01-21T21:31:29.749Z,101373.04
2023-01-21T21:33:56.937Z,101370.40
2023-01-21T21:36:24.507Z,101371.09
2023-01-21T21:38:57.049Z,101373.25
2023-01-21T21:41:43.371Z,101372.23
2023-01-21T21:44:15.773Z,101371.30
2023-01-21T21:47:01.916Z,101372.02
2023-01-21T21:49:29.121Z,101372.18
2023-01-21T21:51:56.655Z,101370.70
2023-01-21T21:54:23.460Z,101378.95
2023-01-21T21:56:50.490Z,101381.31
2023-01-21T21:59:17.318Z,101379.48
2023-01-21T22:01:44.221Z,101378.02
2023-01-21T22:04:16.173Z,101381.20
2023-01-21T22:06:43.209Z,101383.45
2023-01-21T22:09:15.165Z,101388.23
2023-01-21T22:11:42.369Z,101392.81
2023-01-21T22:14:14.419Z,101392.97
2023-01-21T22:16:41.424Z,101391.10
2023-01-21T22:19:08.510Z,101389.83
2023-01-21T22:21:35.327Z,101393.41
2023-01-21T22:24:08.292Z,101391.29
2023-01-21T22:26:35.573Z,101396.50
2023-01-21T22:29:03.301Z,101392.08
2023-01-21T22:31:36.511Z,101391.38
2023-01-21T22:34:04.730Z,101397.70
2023-01-21T22:36:31.642Z,101393.87
2023-01-21T22:38:58.908Z,101395.44
2023-01-21T22:41:31.115Z,101394.98
2023-01-21T22:43:57.921Z,101397.16
2023-01-21T22:46:30.972Z,101395.05
2023-01-21T22:48:58.285Z,101397.77
2023-01-21T22:51:25.284Z,101401.39
2023-01-21T22:53:52.755Z,101399.73
2023-01-21T22:56:25.410Z,101399.69
2023-01-21T22:58:55.293Z,101401.75
2023-01-21T23:01:30.658Z,101405.46
2023-01-21T23:04:03.444Z,101405.50
2023-01-21T23:06:30.590Z,101408.21
2023-01-21T23:08:57.853Z,101400.48
2023-01-21T23:11:29.940Z,101401.35
2023-01-21T23:13:57.107Z,101405.23
2023-01-21T23:16:23.981Z,101407.52
2023-01-21T23:18:56.305Z,101407.99
2023-01-21T23:21:23.378Z,101412.92
2023-01-21T23:23:55.422Z,101417.45
2023-01-21T23:26:27.659Z,101422.39
2023-01-21T23:28:55.762Z,101425.34
2023-01-21T23:31:27.330Z,101432.94
2023-01-21T23:34:00.785Z,101431.42
2023-01-21T23:36:27.673Z,101432.09
2023-01-21T23:38:55.547Z,101433.48
2023-01-21T23:41:24.662Z,101435.22
2023-01-21T23:43:52.110Z,101435.38
2023-01-21T23:46:21.240Z,101437.66
2023-01-21T23:48:48.132Z,101437.12
2023-01-21T23:51:16.239Z,101442.98
2023-01-21T23:53:51.319Z,101446.32
2023-01-21T23:56:24.610Z,101448.44
2023-01-21T23:58:51.897Z,101446.28
